Main page
METAR-TAF:

METAR-TAF

Airports :

Trat Airport

Trat, Thailand

latitude: 12-16-28N, longitude: 102-19-08E, elevation: 32 m

Current weather observation

The report was made 36 minutes ago, at 09:00 UTC
Wind 11 kt from the Southwest
Temperature 30°C
Humidity 70%
Pressure 1010 hPa
Visibility: 5000 m
smoke

METAR: VTBO 240900Z 23011KT 5000 FU NSC 30/24 Q1010

Time: 16:36 (09:36 UTC)

Forecast

The report was made 4 hours and 36 minutes ago, at 05:00 UTC
Forecast valid from 24 at 06 UTC to 25 at 06 UTC
Wind 8 kt from the East/Northeast
Visibility: 6000 m
Few clouds at a height of 2000 ft
Becoming
from 24 at 15 UTC to 24 at 17 UTC
Visibility: 2000 m
mist
Becoming
from 25 at 01 UTC to 25 at 03 UTC
Visibility: 6000 m

TAF: VTBO 240500Z 2406/2506 07008KT 6000 FEW020 BECMG 2415/2417 2000 BR BECMG 2501/2503 6000 NSW

Weather observations and forecasts of more than 4000 airports (METAR and TAF reports).

The available stations are represented by yellow and red dots on the map.

Hover mouse over dot to see the name of the station.

Then click to see weather observations and forecasts.

To change the map : click on the green buttons with a black cross to zoom in, on the green button with a dash to zoom out, or on the green arrows for adjacent maps.


METAR-TAF: